sensor_id;sensor_type;location;lat;lon;timestamp;temperature;humidity
3466;DHT22;1747;48.884;9.160;2022-12-18T00:02:14;-9.20;99.90
3466;DHT22;1747;48.884;9.160;2022-12-18T00:04:41;-9.10;99.90
3466;DHT22;1747;48.884;9.160;2022-12-18T00:07:08;-9.30;99.90
3466;DHT22;1747;48.884;9.160;2022-12-18T00:09:35;-9.30;99.90
3466;DHT22;1747;48.884;9.160;2022-12-18T00:12:01;-9.40;99.90
3466;DHT22;1747;48.884;9.160;2022-12-18T00:14:28;-9.60;99.90
3466;DHT22;1747;48.884;9.160;2022-12-18T00:16:57;-9.90;99.90
3466;DHT22;1747;48.884;9.160;2022-12-18T00:19:26;-10.50;99.90
3466;DHT22;1747;48.884;9.160;2022-12-18T00:21:53;-10.70;99.90
3466;DHT22;1747;48.884;9.160;2022-12-18T00:24:20;-10.70;99.90
3466;DHT22;1747;48.884;9.160;2022-12-18T00:26:47;-10.80;99.90
3466;DHT22;1747;48.884;9.160;2022-12-18T00:29:14;-10.90;99.90
3466;DHT22;1747;48.884;9.160;2022-12-18T00:31:42;-10.70;99.90
3466;DHT22;1747;48.884;9.160;2022-12-18T00:34:12;-10.40;99.90
3466;DHT22;1747;48.884;9.160;2022-12-18T00:36:39;-10.10;99.90
3466;DHT22;1747;48.884;9.160;2022-12-18T00:39:07;-9.90;99.90
3466;DHT22;1747;48.884;9.160;2022-12-18T00:41:34;-9.70;99.90
3466;DHT22;1747;48.884;9.160;2022-12-18T00:44:19;-10.00;99.90
3466;DHT22;1747;48.884;9.160;2022-12-18T00:46:47;-9.90;99.90
3466;DHT22;1747;48.884;9.160;2022-12-18T00:49:17;-10.00;99.90
3466;DHT22;1747;48.884;9.160;2022-12-18T00:51:44;-10.00;99.90
3466;DHT22;1747;48.884;9.160;2022-12-18T00:54:11;-10.00;99.90
3466;DHT22;1747;48.884;9.160;2022-12-18T00:56:38;-10.10;99.90
3466;DHT22;1747;48.884;9.160;2022-12-18T00:59:05;-10.00;99.90
3466;DHT22;1747;48.884;9.160;2022-12-18T01:01:32;-9.90;99.90
3466;DHT22;1747;48.884;9.160;2022-12-18T01:04:00;-9.80;99.90
3466;DHT22;1747;48.884;9.160;2022-12-18T01:06:28;-9.70;99.90
3466;DHT22;1747;48.884;9.160;2022-12-18T01:08:55;-9.80;99.90
3466;DHT22;1747;48.884;9.160;2022-12-18T01:11:23;-9.80;99.90
3466;DHT22;1747;48.884;9.160;2022-12-18T01:13:51;-9.70;99.90
3466;DHT22;1747;48.884;9.160;2022-12-18T01:16:18;-9.50;99.90
3466;DHT22;1747;48.884;9.160;2022-12-18T01:18:45;-9.40;99.90
3466;DHT22;1747;48.884;9.160;2022-12-18T01:21:15;-9.20;99.90
3466;DHT22;1747;48.884;9.160;2022-12-18T01:23:43;-9.20;99.90
3466;DHT22;1747;48.884;9.160;2022-12-18T01:26:12;-9.40;99.90
3466;DHT22;1747;48.884;9.160;2022-12-18T01:28:39;-9.60;99.90
3466;DHT22;1747;48.884;9.160;2022-12-18T01:31:15;-9.60;99.90
3466;DHT22;1747;48.884;9.160;2022-12-18T01:33:42;-9.60;99.90
3466;DHT22;1747;48.884;9.160;2022-12-18T01:36:14;-9.60;99.90
3466;DHT22;1747;48.884;9.160;2022-12-18T01:38:43;-9.70;99.90
3466;DHT22;1747;48.884;9.160;2022-12-18T01:41:11;-9.70;99.90
3466;DHT22;1747;48.884;9.160;2022-12-18T01:43:46;-9.70;99.90
3466;DHT22;1747;48.884;9.160;2022-12-18T01:46:13;-9.80;99.90
3466;DHT22;1747;48.884;9.160;2022-12-18T01:48:40;-9.80;99.90
3466;DHT22;1747;48.884;9.160;2022-12-18T01:51:10;-9.90;99.90
3466;DHT22;1747;48.884;9.160;2022-12-18T01:53:39;-9.90;99.90
3466;DHT22;1747;48.884;9.160;2022-12-18T01:56:11;-10.10;99.90
3466;DHT22;1747;48.884;9.160;2022-12-18T01:58:44;-10.20;99.90
3466;DHT22;1747;48.884;9.160;2022-12-18T02:01:13;-10.60;99.90
3466;DHT22;1747;48.884;9.160;2022-12-18T02:03:41;-10.70;99.90
3466;DHT22;1747;48.884;9.160;2022-12-18T02:06:15;-10.80;99.90
3466;DHT22;1747;48.884;9.160;2022-12-18T02:08:51;-10.50;99.90
3466;DHT22;1747;48.884;9.160;2022-12-18T02:11:31;-10.20;99.90
3466;DHT22;1747;48.884;9.160;2022-12-18T02:14:04;-10.00;99.90
3466;DHT22;1747;48.884;9.160;2022-12-18T02:16:39;-10.00;99.90
3466;DHT22;1747;48.884;9.160;2022-12-18T02:19:20;-9.80;99.90
3466;DHT22;1747;48.884;9.160;2022-12-18T02:21:55;-9.90;99.90
3466;DHT22;1747;48.884;9.160;2022-12-18T02:24:29;-9.70;99.90
3466;DHT22;1747;48.884;9.160;2022-12-18T02:27:01;-9.60;99.90
3466;DHT22;1747;48.884;9.160;2022-12-18T02:29:32;-9.40;99.90
3466;DHT22;1747;48.884;9.160;2022-12-18T02:32:03;-9.20;99.90
3466;DHT22;1747;48.884;9.160;2022-12-18T02:34:33;-9.00;99.90
3466;DHT22;1747;48.884;9.160;2022-12-18T02:37:04;-8.80;99.90
3466;DHT22;1747;48.884;9.160;2022-12-18T02:39:33;-8.70;99.90
3466;DHT22;1747;48.884;9.160;2022-12-18T02:42:02;-8.80;99.90
3466;DHT22;1747;48.884;9.160;2022-12-18T02:44:33;-8.80;99.90
3466;DHT22;1747;48.884;9.160;2022-12-18T02:47:01;-8.80;99.90
3466;DHT22;1747;48.884;9.160;2022-12-18T02:49:34;-8.70;99.90
3466;DHT22;1747;48.884;9.160;2022-12-18T02:52:09;-8.60;99.90
3466;DHT22;1747;48.884;9.160;2022-12-18T02:54:44;-8.40;99.90
3466;DHT22;1747;48.884;9.160;2022-12-18T02:57:20;-8.20;99.90
3466;DHT22;1747;48.884;9.160;2022-12-18T02:59:56;-8.10;99.90
3466;DHT22;1747;48.884;9.160;2022-12-18T03:02:28;-7.90;99.90
3466;DHT22;1747;48.884;9.160;2022-12-18T03:05:01;-7.80;99.90
3466;DHT22;1747;48.884;9.160;2022-12-18T03:07:36;-7.80;99.90
3466;DHT22;1747;48.884;9.160;2022-12-18T03:10:07;-7.80;99.90
3466;DHT22;1747;48.884;9.160;2022-12-18T03:12:39;-7.70;99.90
3466;DHT22;1747;48.884;9.160;2022-12-18T03:15:09;-7.60;99.90
3466;DHT22;1747;48.884;9.160;2022-12-18T03:17:40;-7.60;99.90
3466;DHT22;1747;48.884;9.160;2022-12-18T03:20:12;-7.50;99.90
3466;DHT22;1747;48.884;9.160;2022-12-18T03:22:42;-7.50;99.90
3466;DHT22;1747;48.884;9.160;2022-12-18T03:25:13;-7.40;99.90
3466;DHT22;1747;48.884;9.160;2022-12-18T03:27:44;-7.30;99.90
3466;DHT22;1747;48.884;9.160;2022-12-18T03:30:14;-7.30;99.90
3466;DHT22;1747;48.884;9.160;2022-12-18T03:32:44;-7.40;99.90
3466;DHT22;1747;48.884;9.160;2022-12-18T03:35:17;-7.40;99.90
3466;DHT22;1747;48.884;9.160;2022-12-18T03:37:45;-7.30;99.90
3466;DHT22;1747;48.884;9.160;2022-12-18T03:40:12;-7.20;99.90
3466;DHT22;1747;48.884;9.160;2022-12-18T03:42:46;-7.10;99.90
3466;DHT22;1747;48.884;9.160;2022-12-18T03:45:20;-7.00;99.90
3466;DHT22;1747;48.884;9.160;2022-12-18T03:47:57;-7.00;99.90
3466;DHT22;1747;48.884;9.160;2022-12-18T03:50:30;-7.00;99.90
3466;DHT22;1747;48.884;9.160;2022-12-18T03:53:02;-7.00;99.90
3466;DHT22;1747;48.884;9.160;2022-12-18T03:55:32;-7.10;99.90
3466;DHT22;1747;48.884;9.160;2022-12-18T03:58:04;-7.00;99.90
3466;DHT22;1747;48.884;9.160;2022-12-18T04:00:33;-7.10;99.90
3466;DHT22;1747;48.884;9.160;2022-12-18T04:03:02;-7.20;99.90
3466;DHT22;1747;48.884;9.160;2022-12-18T04:05:33;-7.10;99.90
3466;DHT22;1747;48.884;9.160;2022-12-18T04:08:00;-7.20;99.90
3466;DHT22;1747;48.884;9.160;2022-12-18T04:10:28;-7.10;99.90
3466;DHT22;1747;48.884;9.160;2022-12-18T04:12:55;-7.20;99.90
3466;DHT22;1747;48.884;9.160;2022-12-18T04:15:24;-7.20;99.90
3466;DHT22;1747;48.884;9.160;2022-12-18T04:17:51;-7.20;99.90
3466;DHT22;1747;48.884;9.160;2022-12-18T04:20:18;-7.20;99.90
3466;DHT22;1747;48.884;9.160;2022-12-18T04:22:45;-7.20;99.90
3466;DHT22;1747;48.884;9.160;2022-12-18T04:25:12;-7.20;99.90
3466;DHT22;1747;48.884;9.160;2022-12-18T04:27:39;-7.30;99.90
3466;DHT22;1747;48.884;9.160;2022-12-18T04:30:07;-7.30;99.90
3466;DHT22;1747;48.884;9.160;2022-12-18T04:32:35;-7.30;99.90
3466;DHT22;1747;48.884;9.160;2022-12-18T04:35:02;-7.30;99.90
3466;DHT22;1747;48.884;9.160;2022-12-18T04:37:32;-7.30;99.90
3466;DHT22;1747;48.884;9.160;2022-12-18T04:39:59;-7.50;99.90
3466;DHT22;1747;48.884;9.160;2022-12-18T04:42:25;-7.50;99.90
3466;DHT22;1747;48.884;9.160;2022-12-18T04:44:52;-7.60;99.90
3466;DHT22;1747;48.884;9.160;2022-12-18T04:47:19;-7.60;99.90
3466;DHT22;1747;48.884;9.160;2022-12-18T04:49:47;-7.60;99.90
3466;DHT22;1747;48.884;9.160;2022-12-18T04:52:14;-7.50;99.90
3466;DHT22;1747;48.884;9.160;2022-12-18T04:54:40;-7.50;99.90
3466;DHT22;1747;48.884;9.160;2022-12-18T04:57:07;-7.40;99.90
3466;DHT22;1747;48.884;9.160;2022-12-18T04:59:34;-7.40;99.90
3466;DHT22;1747;48.884;9.160;2022-12-18T05:02:01;-7.40;99.90
3466;DHT22;1747;48.884;9.160;2022-12-18T05:04:28;-7.40;99.90
3466;DHT22;1747;48.884;9.160;2022-12-18T05:06:56;-7.40;99.90
3466;DHT22;1747;48.884;9.160;2022-12-18T05:09:23;-7.50;99.90
3466;DHT22;1747;48.884;9.160;2022-12-18T05:11:49;-7.50;99.90
3466;DHT22;1747;48.884;9.160;2022-12-18T05:14:16;-7.40;99.90
3466;DHT22;1747;48.884;9.160;2022-12-18T05:16:43;-7.20;99.90
3466;DHT22;1747;48.884;9.160;2022-12-18T05:19:10;-7.10;99.90
3466;DHT22;1747;48.884;9.160;2022-12-18T05:21:37;-6.90;99.90
3466;DHT22;1747;48.884;9.160;2022-12-18T05:24:06;-6.90;99.90
3466;DHT22;1747;48.884;9.160;2022-12-18T05:26:33;-6.80;99.90
3466;DHT22;1747;48.884;9.160;2022-12-18T05:28:59;-6.80;99.90
3466;DHT22;1747;48.884;9.160;2022-12-18T05:31:26;-6.90;99.90
3466;DHT22;1747;48.884;9.160;2022-12-18T05:33:53;-7.10;99.90
3466;DHT22;1747;48.884;9.160;2022-12-18T05:36:20;-7.00;99.90
3466;DHT22;1747;48.884;9.160;2022-12-18T05:38:47;-7.10;99.90
3466;DHT22;1747;48.884;9.160;2022-12-18T05:41:15;-7.20;99.90
3466;DHT22;1747;48.884;9.160;2022-12-18T05:43:42;-7.20;99.90
3466;DHT22;1747;48.884;9.160;2022-12-18T05:46:12;-7.20;99.90
3466;DHT22;1747;48.884;9.160;2022-12-18T05:48:39;-7.10;99.90
3466;DHT22;1747;48.884;9.160;2022-12-18T05:51:08;-7.10;99.90
3466;DHT22;1747;48.884;9.160;2022-12-18T05:53:36;-7.10;99.90
3466;DHT22;1747;48.884;9.160;2022-12-18T05:56:04;-7.00;99.90
3466;DHT22;1747;48.884;9.160;2022-12-18T05:58:33;-6.90;99.90
3466;DHT22;1747;48.884;9.160;2022-12-18T06:01:06;-6.90;99.90
3466;DHT22;1747;48.884;9.160;2022-12-18T06:03:33;-6.90;99.90
3466;DHT22;1747;48.884;9.160;2022-12-18T06:06:00;-6.90;99.90
3466;DHT22;1747;48.884;9.160;2022-12-18T06:08:27;-7.00;99.90
3466;DHT22;1747;48.884;9.160;2022-12-18T06:10:54;-6.90;99.90
3466;DHT22;1747;48.884;9.160;2022-12-18T06:13:21;-6.90;99.90
3466;DHT22;1747;48.884;9.160;2022-12-18T06:15:49;-6.90;99.90
3466;DHT22;1747;48.884;9.160;2022-12-18T06:18:16;-6.80;99.90
3466;DHT22;1747;48.884;9.160;2022-12-18T06:20:43;-6.70;99.90
3466;DHT22;1747;48.884;9.160;2022-12-18T06:23:09;-6.70;99.90
3466;DHT22;1747;48.884;9.160;2022-12-18T06:25:38;-6.80;99.90
3466;DHT22;1747;48.884;9.160;2022-12-18T06:28:05;-7.00;99.90
3466;DHT22;1747;48.884;9.160;2022-12-18T06:30:32;-7.00;99.90
3466;DHT22;1747;48.884;9.160;2022-12-18T06:33:00;-7.20;99.90
3466;DHT22;1747;48.884;9.160;2022-12-18T06:35:27;-7.30;99.90
3466;DHT22;1747;48.884;9.160;2022-12-18T06:37:54;-7.30;99.90
3466;DHT22;1747;48.884;9.160;2022-12-18T06:40:22;-7.40;99.90
3466;DHT22;1747;48.884;9.160;2022-12-18T06:42:49;-7.40;99.90
3466;DHT22;1747;48.884;9.160;2022-12-18T06:45:16;-7.20;99.90
3466;DHT22;1747;48.884;9.160;2022-12-18T06:47:43;-7.10;99.90
3466;DHT22;1747;48.884;9.160;2022-12-18T06:50:12;-7.10;99.90
3466;DHT22;1747;48.884;9.160;2022-12-18T06:52:39;-7.20;99.90
3466;DHT22;1747;48.884;9.160;2022-12-18T06:55:07;-7.20;99.90
3466;DHT22;1747;48.884;9.160;2022-12-18T06:57:34;-7.10;99.90
3466;DHT22;1747;48.884;9.160;2022-12-18T07:00:01;-7.10;99.90
3466;DHT22;1747;48.884;9.160;2022-12-18T07:02:28;-7.10;99.90
3466;DHT22;1747;48.884;9.160;2022-12-18T07:04:55;-7.10;99.90
3466;DHT22;1747;48.884;9.160;2022-12-18T07:07:24;-7.20;99.90
3466;DHT22;1747;48.884;9.160;2022-12-18T07:09:51;-7.20;99.90
3466;DHT22;1747;48.884;9.160;2022-12-18T07:12:18;-7.20;99.90
3466;DHT22;1747;48.884;9.160;2022-12-18T07:14:45;-7.10;99.90
3466;DHT22;1747;48.884;9.160;2022-12-18T07:17:12;-6.90;99.90
3466;DHT22;1747;48.884;9.160;2022-12-18T07:19:39;-7.00;99.90
3466;DHT22;1747;48.884;9.160;2022-12-18T07:22:06;-7.00;99.90
3466;DHT22;1747;48.884;9.160;2022-12-18T07:24:35;-6.80;99.90
3466;DHT22;1747;48.884;9.160;2022-12-18T07:27:02;-6.80;99.90
3466;DHT22;1747;48.884;9.160;2022-12-18T07:29:28;-7.00;99.90
3466;DHT22;1747;48.884;9.160;2022-12-18T07:31:56;-7.00;99.90
3466;DHT22;1747;48.884;9.160;2022-12-18T07:34:23;-7.10;99.90
3466;DHT22;1747;48.884;9.160;2022-12-18T07:36:50;-7.00;99.90
3466;DHT22;1747;48.884;9.160;2022-12-18T07:39:17;-6.80;99.90
3466;DHT22;1747;48.884;9.160;2022-12-18T07:41:46;-6.70;99.90
3466;DHT22;1747;48.884;9.160;2022-12-18T07:44:33;-6.70;99.90
3466;DHT22;1747;48.884;9.160;2022-12-18T07:47:00;-6.80;99.90
3466;DHT22;1747;48.884;9.160;2022-12-18T07:49:27;-6.90;99.90
3466;DHT22;1747;48.884;9.160;2022-12-18T07:51:55;-7.00;99.90
3466;DHT22;1747;48.884;9.160;2022-12-18T07:54:23;-7.60;99.90
3466;DHT22;1747;48.884;9.160;2022-12-18T07:56:51;-8.30;99.90
3466;DHT22;1747;48.884;9.160;2022-12-18T07:59:18;-8.90;99.90
3466;DHT22;1747;48.884;9.160;2022-12-18T08:01:45;-9.20;99.90
3466;DHT22;1747;48.884;9.160;2022-12-18T08:04:12;-9.50;99.90
3466;DHT22;1747;48.884;9.160;2022-12-18T08:06:39;-9.70;99.90
3466;DHT22;1747;48.884;9.160;2022-12-18T08:09:06;-9.40;99.90
3466;DHT22;1747;48.884;9.160;2022-12-18T08:11:34;-9.00;99.90
3466;DHT22;1747;48.884;9.160;2022-12-18T08:14:02;-8.60;99.90
3466;DHT22;1747;48.884;9.160;2022-12-18T08:16:29;-8.50;99.90
3466;DHT22;1747;48.884;9.160;2022-12-18T08:18:56;-8.50;99.90
3466;DHT22;1747;48.884;9.160;2022-12-18T08:21:24;-8.40;99.90
3466;DHT22;1747;48.884;9.160;2022-12-18T08:23:53;-8.10;99.90
3466;DHT22;1747;48.884;9.160;2022-12-18T08:26:20;-7.70;99.90
3466;DHT22;1747;48.884;9.160;2022-12-18T08:28:47;-7.50;99.90
3466;DHT22;1747;48.884;9.160;2022-12-18T08:31:16;-7.30;99.90
3466;DHT22;1747;48.884;9.160;2022-12-18T08:33:43;-7.20;99.90
3466;DHT22;1747;48.884;9.160;2022-12-18T08:36:10;-7.00;99.90
3466;DHT22;1747;48.884;9.160;2022-12-18T08:38:36;-6.80;99.90
3466;DHT22;1747;48.884;9.160;2022-12-18T08:41:05;-6.60;99.90
3466;DHT22;1747;48.884;9.160;2022-12-18T08:43:33;-6.40;99.90
3466;DHT22;1747;48.884;9.160;2022-12-18T08:46:19;-6.40;99.90
3466;DHT22;1747;48.884;9.160;2022-12-18T08:48:47;-6.50;99.90
3466;DHT22;1747;48.884;9.160;2022-12-18T08:51:16;-6.50;99.90
3466;DHT22;1747;48.884;9.160;2022-12-18T08:53:43;-6.70;99.90
3466;DHT22;1747;48.884;9.160;2022-12-18T08:56:11;-6.90;99.90
3466;DHT22;1747;48.884;9.160;2022-12-18T08:58:38;-6.90;99.90
3466;DHT22;1747;48.884;9.160;2022-12-18T09:01:07;-6.90;99.90
3466;DHT22;1747;48.884;9.160;2022-12-18T09:03:37;-6.80;99.90
3466;DHT22;1747;48.884;9.160;2022-12-18T09:06:04;-6.60;99.90
3466;DHT22;1747;48.884;9.160;2022-12-18T09:08:34;-6.30;99.90
3466;DHT22;1747;48.884;9.160;2022-12-18T09:11:02;-6.10;99.90
3466;DHT22;1747;48.884;9.160;2022-12-18T09:13:28;-6.00;99.90
3466;DHT22;1747;48.884;9.160;2022-12-18T09:15:55;-5.90;99.90
3466;DHT22;1747;48.884;9.160;2022-12-18T09:18:24;-5.80;99.90
3466;DHT22;1747;48.884;9.160;2022-12-18T09:20:52;-5.80;99.90
3466;DHT22;1747;48.884;9.160;2022-12-18T09:23:19;-5.80;99.90
3466;DHT22;1747;48.884;9.160;2022-12-18T09:25:46;-5.70;99.90
3466;DHT22;1747;48.884;9.160;2022-12-18T09:28:14;-5.70;99.90
3466;DHT22;1747;48.884;9.160;2022-12-18T09:30:44;-5.50;99.90
3466;DHT22;1747;48.884;9.160;2022-12-18T09:33:10;-5.40;99.90
3466;DHT22;1747;48.884;9.160;2022-12-18T09:35:37;-5.20;99.90
3466;DHT22;1747;48.884;9.160;2022-12-18T09:38:06;-5.10;99.90
3466;DHT22;1747;48.884;9.160;2022-12-18T09:40:35;-5.10;99.90
3466;DHT22;1747;48.884;9.160;2022-12-18T09:43:04;-4.90;99.90
3466;DHT22;1747;48.884;9.160;2022-12-18T09:45:37;-4.90;99.90
3466;DHT22;1747;48.884;9.160;2022-12-18T09:48:08;-4.90;99.90
3466;DHT22;1747;48.884;9.160;2022-12-18T09:50:39;-4.90;99.90
3466;DHT22;1747;48.884;9.160;2022-12-18T09:53:13;-4.80;99.90
3466;DHT22;1747;48.884;9.160;2022-12-18T09:55:44;-4.70;99.90
3466;DHT22;1747;48.884;9.160;2022-12-18T09:58:19;-4.60;99.90
3466;DHT22;1747;48.884;9.160;2022-12-18T10:00:47;-4.30;99.90
3466;DHT22;1747;48.884;9.160;2022-12-18T10:03:15;-4.20;99.90
3466;DHT22;1747;48.884;9.160;2022-12-18T10:05:49;-4.00;99.90
3466;DHT22;1747;48.884;9.160;2022-12-18T10:08:24;-3.80;99.90
3466;DHT22;1747;48.884;9.160;2022-12-18T10:10:56;-3.60;99.90
3466;DHT22;1747;48.884;9.160;2022-12-18T10:13:31;-3.50;99.90
3466;DHT22;1747;48.884;9.160;2022-12-18T10:16:07;-3.30;99.90
3466;DHT22;1747;48.884;9.160;2022-12-18T10:18:53;-3.20;99.90
3466;DHT22;1747;48.884;9.160;2022-12-18T10:21:27;-3.10;99.90
3466;DHT22;1747;48.884;9.160;2022-12-18T10:24:08;-3.00;99.90
3466;DHT22;1747;48.884;9.160;2022-12-18T10:26:39;-2.90;99.90
3466;DHT22;1747;48.884;9.160;2022-12-18T10:29:10;-2.70;99.90
3466;DHT22;1747;48.884;9.160;2022-12-18T10:31:38;-2.70;99.90
3466;DHT22;1747;48.884;9.160;2022-12-18T10:34:08;-2.60;99.90
3466;DHT22;1747;48.884;9.160;2022-12-18T10:36:35;-2.50;99.90
3466;DHT22;1747;48.884;9.160;2022-12-18T10:39:16;-2.40;99.90
3466;DHT22;1747;48.884;9.160;2022-12-18T10:41:43;-2.40;99.90
3466;DHT22;1747;48.884;9.160;2022-12-18T10:44:14;-2.30;99.90
3466;DHT22;1747;48.884;9.160;2022-12-18T10:46:42;-2.40;99.90
3466;DHT22;1747;48.884;9.160;2022-12-18T10:49:19;-2.40;99.90
3466;DHT22;1747;48.884;9.160;2022-12-18T10:51:47;-2.30;99.90
3466;DHT22;1747;48.884;9.160;2022-12-18T10:54:19;-2.40;99.90
3466;DHT22;1747;48.884;9.160;2022-12-18T10:56:49;-2.30;99.90
3466;DHT22;1747;48.884;9.160;2022-12-18T10:59:17;-2.20;99.90
3466;DHT22;1747;48.884;9.160;2022-12-18T11:01:50;-2.30;99.90
3466;DHT22;1747;48.884;9.160;2022-12-18T11:04:20;-2.30;99.90
3466;DHT22;1747;48.884;9.160;2022-12-18T11:06:56;-2.20;99.90
3466;DHT22;1747;48.884;9.160;2022-12-18T11:09:27;-2.20;99.90
3466;DHT22;1747;48.884;9.160;2022-12-18T11:11:56;-2.30;99.90
3466;DHT22;1747;48.884;9.160;2022-12-18T11:14:26;-2.20;99.90
3466;DHT22;1747;48.884;9.160;2022-12-18T11:16:55;-2.20;99.90
3466;DHT22;1747;48.884;9.160;2022-12-18T11:19:33;-2.20;99.90
3466;DHT22;1747;48.884;9.160;2022-12-18T11:22:01;-2.00;99.90
3466;DHT22;1747;48.884;9.160;2022-12-18T11:24:32;-2.10;99.90
3466;DHT22;1747;48.884;9.160;2022-12-18T11:27:04;-2.00;99.90
3466;DHT22;1747;48.884;9.160;2022-12-18T11:29:33;-1.80;99.90
3466;DHT22;1747;48.884;9.160;2022-12-18T11:32:28;-1.90;99.90
3466;DHT22;1747;48.884;9.160;2022-12-18T11:35:02;-1.70;99.90
3466;DHT22;1747;48.884;9.160;2022-12-18T11:37:31;-1.50;99.90
3466;DHT22;1747;48.884;9.160;2022-12-18T11:40:02;-1.40;99.90
3466;DHT22;1747;48.884;9.160;2022-12-18T11:42:37;-1.30;99.90
3466;DHT22;1747;48.884;9.160;2022-12-18T11:45:25;-1.10;99.90
3466;DHT22;1747;48.884;9.160;2022-12-18T11:47:58;-1.00;99.90
3466;DHT22;1747;48.884;9.160;2022-12-18T11:50:30;-1.00;99.90
3466;DHT22;1747;48.884;9.160;2022-12-18T11:52:58;-0.90;99.90
3466;DHT22;1747;48.884;9.160;2022-12-18T11:55:37;-0.80;99.90
3466;DHT22;1747;48.884;9.160;2022-12-18T11:58:14;-0.80;99.90
3466;DHT22;1747;48.884;9.160;2022-12-18T12:00:48;-0.70;99.90
3466;DHT22;1747;48.884;9.160;2022-12-18T12:03:36;-0.60;99.90
3466;DHT22;1747;48.884;9.160;2022-12-18T12:06:11;-0.60;99.90
3466;DHT22;1747;48.884;9.160;2022-12-18T12:08:52;-0.40;99.90
3466;DHT22;1747;48.884;9.160;2022-12-18T12:11:30;-0.10;99.90
3466;DHT22;1747;48.884;9.160;2022-12-18T12:14:17;-0.10;99.90
3466;DHT22;1747;48.884;9.160;2022-12-18T12:16:50;0.00;99.90
3466;DHT22;1747;48.884;9.160;2022-12-18T12:19:28;0.10;99.90
3466;DHT22;1747;48.884;9.160;2022-12-18T12:22:05;0.20;99.90
3466;DHT22;1747;48.884;9.160;2022-12-18T12:24:44;0.20;99.90
3466;DHT22;1747;48.884;9.160;2022-12-18T12:27:20;0.30;99.90
3466;DHT22;1747;48.884;9.160;2022-12-18T12:29:58;0.30;99.90
3466;DHT22;1747;48.884;9.160;2022-12-18T12:32:37;0.30;99.90
3466;DHT22;1747;48.884;9.160;2022-12-18T12:35:25;0.30;99.90
3466;DHT22;1747;48.884;9.160;2022-12-18T12:38:06;0.50;99.90
3466;DHT22;1747;48.884;9.160;2022-12-18T12:40:42;0.50;99.90
3466;DHT22;1747;48.884;9.160;2022-12-18T12:43:29;0.70;99.90
3466;DHT22;1747;48.884;9.160;2022-12-18T12:46:04;0.90;99.90
3466;DHT22;1747;48.884;9.160;2022-12-18T12:48:42;1.00;99.90
3466;DHT22;1747;48.884;9.160;2022-12-18T12:51:14;1.00;99.90
3466;DHT22;1747;48.884;9.160;2022-12-18T12:53:43;1.00;99.90
3466;DHT22;1747;48.884;9.160;2022-12-18T12:56:12;1.10;99.90
3466;DHT22;1747;48.884;9.160;2022-12-18T12:58:46;1.10;99.90
3466;DHT22;1747;48.884;9.160;2022-12-18T13:01:25;1.00;99.90
3466;DHT22;1747;48.884;9.160;2022-12-18T13:04:02;1.10;99.90
3466;DHT22;1747;48.884;9.160;2022-12-18T13:06:40;1.00;99.90
3466;DHT22;1747;48.884;9.160;2022-12-18T13:09:08;1.00;99.90
3466;DHT22;1747;48.884;9.160;2022-12-18T13:11:38;1.20;99.90
3466;DHT22;1747;48.884;9.160;2022-12-18T13:14:27;1.20;99.90
3466;DHT22;1747;48.884;9.160;2022-12-18T13:17:25;1.40;99.90
3466;DHT22;1747;48.884;9.160;2022-12-18T13:20:05;1.50;99.90
3466;DHT22;1747;48.884;9.160;2022-12-18T13:22:35;1.40;99.90
3466;DHT22;1747;48.884;9.160;2022-12-18T13:25:04;1.40;99.90
3466;DHT22;1747;48.884;9.160;2022-12-18T13:28:09;1.30;99.90
3466;DHT22;1747;48.884;9.160;2022-12-18T13:30:52;1.00;99.90
3466;DHT22;1747;48.884;9.160;2022-12-18T13:33:39;0.80;99.90
3466;DHT22;1747;48.884;9.160;2022-12-18T13:36:14;0.50;99.90
3466;DHT22;1747;48.884;9.160;2022-12-18T13:38:43;0.50;99.90
3466;DHT22;1747;48.884;9.160;2022-12-18T13:41:25;0.40;99.90
3466;DHT22;1747;48.884;9.160;2022-12-18T13:43:53;0.40;99.90
3466;DHT22;1747;48.884;9.160;2022-12-18T13:46:27;0.50;99.90
3466;DHT22;1747;48.884;9.160;2022-12-18T13:48:57;0.50;99.90
3466;DHT22;1747;48.884;9.160;2022-12-18T13:51:25;0.50;99.90
3466;DHT22;1747;48.884;9.160;2022-12-18T13:53:55;0.40;99.90
3466;DHT22;1747;48.884;9.160;2022-12-18T13:56:25;0.30;99.90
3466;DHT22;1747;48.884;9.160;2022-12-18T13:59:10;0.30;99.90
3466;DHT22;1747;48.884;9.160;2022-12-18T14:01:43;0.10;99.90
3466;DHT22;1747;48.884;9.160;2022-12-18T14:04:12;0.10;99.90
3466;DHT22;1747;48.884;9.160;2022-12-18T14:06:43;0.10;99.90
3466;DHT22;1747;48.884;9.160;2022-12-18T14:09:14;0.00;99.90
3466;DHT22;1747;48.884;9.160;2022-12-18T14:11:46;-0.10;99.90
3466;DHT22;1747;48.884;9.160;2022-12-18T14:14:14;0.00;99.90
3466;DHT22;1747;48.884;9.160;2022-12-18T14:16:43;-0.10;99.90
3466;DHT22;1747;48.884;9.160;2022-12-18T14:19:13;-0.20;99.90
3466;DHT22;1747;48.884;9.160;2022-12-18T14:21:40;-0.20;99.90
3466;DHT22;1747;48.884;9.160;2022-12-18T14:24:15;-0.30;99.90
3466;DHT22;1747;48.884;9.160;2022-12-18T14:26:43;-0.60;99.90
3466;DHT22;1747;48.884;9.160;2022-12-18T14:29:25;-0.80;99.90
3466;DHT22;1747;48.884;9.160;2022-12-18T14:32:12;-1.20;99.90
3466;DHT22;1747;48.884;9.160;2022-12-18T14:34:42;-1.40;99.90
3466;DHT22;1747;48.884;9.160;2022-12-18T14:37:10;-1.60;99.90
3466;DHT22;1747;48.884;9.160;2022-12-18T14:39:37;-1.50;99.90
3466;DHT22;1747;48.884;9.160;2022-12-18T14:42:04;-1.50;99.90
3466;DHT22;1747;48.884;9.160;2022-12-18T14:44:31;-1.40;99.90
3466;DHT22;1747;48.884;9.160;2022-12-18T14:46:58;-1.70;99.90
3466;DHT22;1747;48.884;9.160;2022-12-18T14:49:29;-1.80;99.90
3466;DHT22;1747;48.884;9.160;2022-12-18T14:51:57;-1.70;99.90
3466;DHT22;1747;48.884;9.160;2022-12-18T14:54:27;-1.70;99.90
3466;DHT22;1747;48.884;9.160;2022-12-18T14:56:59;-1.90;99.90
3466;DHT22;1747;48.884;9.160;2022-12-18T14:59:26;-2.20;99.90
3466;DHT22;1747;48.884;9.160;2022-12-18T15:01:59;-2.50;99.90
3466;DHT22;1747;48.884;9.160;2022-12-18T15:04:30;-2.60;99.90
3466;DHT22;1747;48.884;9.160;2022-12-18T15:07:05;-2.70;99.90
3466;DHT22;1747;48.884;9.160;2022-12-18T15:09:34;-2.70;99.90
3466;DHT22;1747;48.884;9.160;2022-12-18T15:12:01;-2.70;99.90
3466;DHT22;1747;48.884;9.160;2022-12-18T15:14:39;-2.60;99.90
3466;DHT22;1747;48.884;9.160;2022-12-18T15:17:15;-2.70;99.90
3466;DHT22;1747;48.884;9.160;2022-12-18T15:19:45;-2.70;99.90
3466;DHT22;1747;48.884;9.160;2022-12-18T15:22:25;-2.70;99.90
3466;DHT22;1747;48.884;9.160;2022-12-18T15:24:52;-2.80;99.90
3466;DHT22;1747;48.884;9.160;2022-12-18T15:27:31;-2.70;99.90
3466;DHT22;1747;48.884;9.160;2022-12-18T15:30:17;-2.70;99.90
3466;DHT22;1747;48.884;9.160;2022-12-18T15:32:47;-2.50;99.90
3466;DHT22;1747;48.884;9.160;2022-12-18T15:35:19;-2.40;99.90
3466;DHT22;1747;48.884;9.160;2022-12-18T15:37:46;-2.30;99.90
3466;DHT22;1747;48.884;9.160;2022-12-18T15:40:14;-2.30;99.90
3466;DHT22;1747;48.884;9.160;2022-12-18T15:42:41;-2.20;99.90
3466;DHT22;1747;48.884;9.160;2022-12-18T15:45:26;-2.30;99.90
3466;DHT22;1747;48.884;9.160;2022-12-18T15:47:53;-2.30;99.90
3466;DHT22;1747;48.884;9.160;2022-12-18T15:50:22;-2.40;99.90
3466;DHT22;1747;48.884;9.160;2022-12-18T15:52:51;-2.20;99.90
3466;DHT22;1747;48.884;9.160;2022-12-18T15:55:19;-2.20;99.90
3466;DHT22;1747;48.884;9.160;2022-12-18T15:58:05;-2.00;99.90
3466;DHT22;1747;48.884;9.160;2022-12-18T16:00:33;-2.00;99.90
3466;DHT22;1747;48.884;9.160;2022-12-18T16:03:01;-2.00;99.90
3466;DHT22;1747;48.884;9.160;2022-12-18T16:05:29;-1.90;99.90
3466;DHT22;1747;48.884;9.160;2022-12-18T16:07:57;-1.90;99.90
3466;DHT22;1747;48.884;9.160;2022-12-18T16:10:24;-1.90;99.90
3466;DHT22;1747;48.884;9.160;2022-12-18T16:12:51;-1.90;99.90
3466;DHT22;1747;48.884;9.160;2022-12-18T16:15:18;-1.90;99.90
3466;DHT22;1747;48.884;9.160;2022-12-18T16:17:46;-2.00;99.90
3466;DHT22;1747;48.884;9.160;2022-12-18T16:20:14;-2.00;99.90
3466;DHT22;1747;48.884;9.160;2022-12-18T16:22:43;-2.00;99.90
3466;DHT22;1747;48.884;9.160;2022-12-18T16:25:18;-1.90;99.90